Mac Dill Air Force Base
KMCF : now visible

Airfield :











YOU CAN JOIN US ON...

 
LOGIN :

Register | Disclaimer

   EN    FR    IT 

 









Legend :    VFR   Marginal VFR   IFR   Intensive IFR   Very Intensive IFR
Visi :
Ceiling :
>= 8 km
>= 3000ft
5 to 8 km
1000 to 3000 ft
1500m to 5 km
500 to 1000 ft
800 to 1500m
200 to 500 ft
< 800m
< 200 ft
Symbols :   Thunderstorms  Fog  Heavy snow  Heavy precipitations  Wind > 20 kt







- Airport Elevation : 14 ft


KMCF - Mac Dill Air Force Base

CURRENT METAR :
  • 260156Z AUTO 36003KT 10SM FEW050 30/25 A2994 RMK AO2 SLP142 T02960253 FZRANO $

EXPIRED METARs :
  • 260056Z AUTO 36006KT 10SM BKN050 BKN060 30/26 A2991 RMK AO2 SLP131 T03030255 FZRANO $
  • 252356Z AUTO 35004KT 10SM CLR 31/24 A2989 RMK AO2 SLP125 T03090243 10340 20309 55000 FZRANO $

TAF TAF KMCF
Valid from the 26 at 01:00 until the 27 at 07:00 UTC


260100Z 2601/2707 VRB06KT 9999 VCSH FEW030 QNH2988INS
BECMG 2605/2606 VRB06KT 9999 NSW FEW030 QNH2992INS
BECMG 2614/2615 07009KT 9999 SCT030 QNH2988INS
TEMPO 2620/2623 VRB10G15KT 9000 -TSRA SCT030 BKN050CB
BECMG 2701/2702 VRB06KT 9999 FEW030 QNH2994INS TX31/2617Z TN26/2608Z
No reported NOTAMs for that airfield.



MET'MAP, your aeronautical weather chart ! - Copyright ORBIFLY December 2007 - Disclaimer

ORBIFLY MET'MAP TEAM :

Programming & Development : Alexandra Zaïnal
Concept & Development : Baudouin d'Aumeries
Co-Development & Prog : Marc-Olivier Méhu
Technical & hardware support : Manuel Goepfert

Contact : metmap@orbifly.com




SOURCES & CREDITS :

   NOAA       Earth
Advisory